sensor_id;sensor_type;location;lat;lon;timestamp;P1;durP1;ratioP1;P2;durP2;ratioP2
21624;SDS011;10974;51.034;3.744;2023-08-01T03:40:27;1.23;;;1.13;;
21624;SDS011;10974;51.034;3.744;2023-08-01T03:42:53;2.20;;;1.10;;
21624;SDS011;10974;51.034;3.744;2023-08-01T03:45:19;2.03;;;1.10;;
21624;SDS011;10974;51.034;3.744;2023-08-01T03:47:45;1.77;;;1.20;;
21624;SDS011;10974;51.034;3.744;2023-08-01T03:50:11;1.30;;;1.20;;
21624;SDS011;10974;51.034;3.744;2023-08-01T03:52:38;1.30;;;1.20;;
21624;SDS011;10974;51.034;3.744;2023-08-01T03:55:05;1.93;;;1.20;;
21624;SDS011;10974;51.034;3.744;2023-08-01T03:57:31;1.30;;;1.20;;
21624;SDS011;10974;51.034;3.744;2023-08-01T04:00:00;2.73;;;1.30;;
21624;SDS011;10974;51.034;3.744;2023-08-01T04:02:28;1.50;;;1.40;;
21624;SDS011;10974;51.034;3.744;2023-08-01T04:04:54;1.90;;;1.30;;
21624;SDS011;10974;51.034;3.744;2023-08-01T04:07:20;2.90;;;1.50;;
21624;SDS011;10974;51.034;3.744;2023-08-01T04:09:46;2.80;;;1.63;;
21624;SDS011;10974;51.034;3.744;2023-08-01T04:12:12;1.70;;;1.60;;
21624;SDS011;10974;51.034;3.744;2023-08-01T04:14:38;1.73;;;1.63;;
21624;SDS011;10974;51.034;3.744;2023-08-01T04:17:04;1.53;;;1.20;;
21624;SDS011;10974;51.034;3.744;2023-08-01T04:19:30;3.33;;;1.30;;
21624;SDS011;10974;51.034;3.744;2023-08-01T04:21:56;1.53;;;1.30;;
21624;SDS011;10974;51.034;3.744;2023-08-01T04:24:22;1.40;;;1.30;;
21624;SDS011;10974;51.034;3.744;2023-08-01T04:26:50;1.43;;;1.20;;
21624;SDS011;10974;51.034;3.744;2023-08-01T04:29:17;1.43;;;1.20;;
21624;SDS011;10974;51.034;3.744;2023-08-01T04:31:43;1.40;;;1.30;;
21624;SDS011;10974;51.034;3.744;2023-08-01T04:34:09;1.70;;;1.60;;
21624;SDS011;10974;51.034;3.744;2023-08-01T04:36:35;1.37;;;1.27;;
21624;SDS011;10974;51.034;3.744;2023-08-01T04:39:01;4.60;;;1.20;;
21624;SDS011;10974;51.034;3.744;2023-08-01T04:41:27;2.20;;;1.57;;
21624;SDS011;10974;51.034;3.744;2023-08-01T04:43:53;2.00;;;1.70;;
21624;SDS011;10974;51.034;3.744;2023-08-01T04:46:19;1.50;;;1.40;;
21624;SDS011;10974;51.034;3.744;2023-08-01T04:48:45;5.13;;;1.53;;
21624;SDS011;10974;51.034;3.744;2023-08-01T04:51:11;3.83;;;2.07;;
21624;SDS011;10974;51.034;3.744;2023-08-01T04:53:37;1.67;;;1.53;;
21624;SDS011;10974;51.034;3.744;2023-08-01T04:56:03;1.87;;;1.33;;
21624;SDS011;10974;51.034;3.744;2023-08-01T04:58:29;1.37;;;1.27;;
21624;SDS011;10974;51.034;3.744;2023-08-01T05:00:55;1.30;;;1.20;;
21624;SDS011;10974;51.034;3.744;2023-08-01T05:03:21;1.67;;;1.47;;
21624;SDS011;10974;51.034;3.744;2023-08-01T05:05:47;1.40;;;1.30;;
21624;SDS011;10974;51.034;3.744;2023-08-01T05:08:14;4.23;;;1.80;;
21624;SDS011;10974;51.034;3.744;2023-08-01T05:10:40;2.23;;;1.60;;
21624;SDS011;10974;51.034;3.744;2023-08-01T05:13:06;2.53;;;2.00;;
21624;SDS011;10974;51.034;3.744;2023-08-01T05:15:32;2.23;;;1.33;;
21624;SDS011;10974;51.034;3.744;2023-08-01T05:17:58;2.00;;;1.70;;
21624;SDS011;10974;51.034;3.744;2023-08-01T05:20:24;5.83;;;2.57;;
21624;SDS011;10974;51.034;3.744;2023-08-01T05:22:56;8.87;;;3.87;;
21624;SDS011;10974;51.034;3.744;2023-08-01T05:25:22;9.80;;;3.17;;
21624;SDS011;10974;51.034;3.744;2023-08-01T05:27:48;4.90;;;3.00;;
21624;SDS011;10974;51.034;3.744;2023-08-01T05:30:14;7.80;;;3.40;;
21624;SDS011;10974;51.034;3.744;2023-08-01T05:32:40;9.00;;;3.20;;
21624;SDS011;10974;51.034;3.744;2023-08-01T05:35:09;7.50;;;3.10;;
21624;SDS011;10974;51.034;3.744;2023-08-01T05:37:35;5.03;;;3.00;;
21624;SDS011;10974;51.034;3.744;2023-08-01T05:40:02;8.77;;;3.70;;
21624;SDS011;10974;51.034;3.744;2023-08-01T05:42:28;5.37;;;2.97;;
21624;SDS011;10974;51.034;3.744;2023-08-01T05:44:54;8.60;;;3.30;;
21624;SDS011;10974;51.034;3.744;2023-08-01T05:47:21;9.03;;;4.20;;
21624;SDS011;10974;51.034;3.744;2023-08-01T05:49:50;10.37;;;3.73;;
21624;SDS011;10974;51.034;3.744;2023-08-01T05:52:17;6.40;;;2.87;;
21624;SDS011;10974;51.034;3.744;2023-08-01T05:54:43;8.33;;;4.00;;
21624;SDS011;10974;51.034;3.744;2023-08-01T05:57:09;6.77;;;3.53;;
21624;SDS011;10974;51.034;3.744;2023-08-01T05:59:35;6.93;;;3.33;;
21624;SDS011;10974;51.034;3.744;2023-08-01T06:02:01;8.93;;;3.40;;
21624;SDS011;10974;51.034;3.744;2023-08-01T06:04:27;7.50;;;3.70;;
21624;SDS011;10974;51.034;3.744;2023-08-01T06:06:54;5.40;;;2.83;;
21624;SDS011;10974;51.034;3.744;2023-08-01T06:09:21;7.77;;;3.80;;
21624;SDS011;10974;51.034;3.744;2023-08-01T06:11:47;5.87;;;3.13;;
21624;SDS011;10974;51.034;3.744;2023-08-01T06:14:13;4.70;;;3.30;;
21624;SDS011;10974;51.034;3.744;2023-08-01T06:16:39;10.03;;;4.20;;
21624;SDS011;10974;51.034;3.744;2023-08-01T06:19:05;8.23;;;4.07;;
21624;SDS011;10974;51.034;3.744;2023-08-01T06:21:31;6.33;;;3.07;;
21624;SDS011;10974;51.034;3.744;2023-08-01T06:23:57;7.80;;;3.23;;
21624;SDS011;10974;51.034;3.744;2023-08-01T06:26:23;8.40;;;3.20;;
21624;SDS011;10974;51.034;3.744;2023-08-01T06:28:49;10.10;;;2.73;;
21624;SDS011;10974;51.034;3.744;2023-08-01T06:31:18;5.80;;;3.07;;
21624;SDS011;10974;51.034;3.744;2023-08-01T06:33:44;9.20;;;3.20;;
21624;SDS011;10974;51.034;3.744;2023-08-01T06:36:10;4.47;;;2.47;;
21624;SDS011;10974;51.034;3.744;2023-08-01T06:38:36;5.73;;;2.77;;
21624;SDS011;10974;51.034;3.744;2023-08-01T06:41:02;8.07;;;2.90;;
21624;SDS011;10974;51.034;3.744;2023-08-01T06:43:28;9.23;;;2.87;;
21624;SDS011;10974;51.034;3.744;2023-08-01T06:45:54;4.60;;;3.03;;
21624;SDS011;10974;51.034;3.744;2023-08-01T06:48:20;7.50;;;3.50;;
21624;SDS011;10974;51.034;3.744;2023-08-01T06:50:46;6.50;;;3.00;;
21624;SDS011;10974;51.034;3.744;2023-08-01T06:53:12;5.70;;;2.83;;
21624;SDS011;10974;51.034;3.744;2023-08-01T06:55:38;8.53;;;3.00;;
21624;SDS011;10974;51.034;3.744;2023-08-01T06:58:05;7.23;;;2.67;;
21624;SDS011;10974;51.034;3.744;2023-08-01T07:00:31;9.80;;;4.30;;
21624;SDS011;10974;51.034;3.744;2023-08-01T07:02:57;9.70;;;4.17;;
21624;SDS011;10974;51.034;3.744;2023-08-01T07:05:23;9.97;;;4.33;;
21624;SDS011;10974;51.034;3.744;2023-08-01T07:07:49;8.33;;;4.67;;
21624;SDS011;10974;51.034;3.744;2023-08-01T07:10:16;13.63;;;4.90;;
21624;SDS011;10974;51.034;3.744;2023-08-01T07:12:42;13.53;;;4.50;;
21624;SDS011;10974;51.034;3.744;2023-08-01T07:15:08;9.63;;;5.20;;
21624;SDS011;10974;51.034;3.744;2023-08-01T07:17:34;11.83;;;4.37;;
21624;SDS011;10974;51.034;3.744;2023-08-01T07:20:00;8.30;;;3.77;;
21624;SDS011;10974;51.034;3.744;2023-08-01T07:22:26;9.20;;;4.97;;
21624;SDS011;10974;51.034;3.744;2023-08-01T07:24:53;15.00;;;5.43;;
21624;SDS011;10974;51.034;3.744;2023-08-01T07:27:19;11.80;;;5.70;;
21624;SDS011;10974;51.034;3.744;2023-08-01T07:29:45;16.17;;;4.83;;
21624;SDS011;10974;51.034;3.744;2023-08-01T07:32:11;9.10;;;5.47;;
21624;SDS011;10974;51.034;3.744;2023-08-01T07:34:38;9.63;;;4.93;;
21624;SDS011;10974;51.034;3.744;2023-08-01T07:37:04;7.80;;;4.60;;
21624;SDS011;10974;51.034;3.744;2023-08-01T07:39:30;8.33;;;4.47;;
21624;SDS011;10974;51.034;3.744;2023-08-01T07:41:56;11.70;;;5.20;;
21624;SDS011;10974;51.034;3.744;2023-08-01T07:44:22;9.93;;;5.50;;
21624;SDS011;10974;51.034;3.744;2023-08-01T07:46:48;11.07;;;5.47;;
21624;SDS011;10974;51.034;3.744;2023-08-01T07:49:14;11.73;;;5.60;;
21624;SDS011;10974;51.034;3.744;2023-08-01T07:51:41;12.47;;;5.10;;
21624;SDS011;10974;51.034;3.744;2023-08-01T07:54:07;9.90;;;4.87;;
21624;SDS011;10974;51.034;3.744;2023-08-01T07:56:33;7.90;;;4.70;;
21624;SDS011;10974;51.034;3.744;2023-08-01T07:58:59;7.10;;;4.57;;
21624;SDS011;10974;51.034;3.744;2023-08-01T08:01:25;11.27;;;4.90;;
21624;SDS011;10974;51.034;3.744;2023-08-01T08:03:51;7.23;;;4.20;;
21624;SDS011;10974;51.034;3.744;2023-08-01T08:06:17;9.50;;;4.77;;
21624;SDS011;10974;51.034;3.744;2023-08-01T08:08:46;9.33;;;4.13;;
21624;SDS011;10974;51.034;3.744;2023-08-01T08:11:13;10.37;;;4.00;;
21624;SDS011;10974;51.034;3.744;2023-08-01T08:13:39;8.57;;;4.67;;
21624;SDS011;10974;51.034;3.744;2023-08-01T08:16:06;8.80;;;4.43;;
21624;SDS011;10974;51.034;3.744;2023-08-01T08:18:32;8.23;;;4.70;;
21624;SDS011;10974;51.034;3.744;2023-08-01T08:20:58;9.60;;;5.50;;
21624;SDS011;10974;51.034;3.744;2023-08-01T08:23:24;9.20;;;4.80;;
21624;SDS011;10974;51.034;3.744;2023-08-01T08:25:50;8.63;;;5.20;;
21624;SDS011;10974;51.034;3.744;2023-08-01T08:28:26;10.37;;;5.13;;
21624;SDS011;10974;51.034;3.744;2023-08-01T08:30:53;13.27;;;6.13;;
21624;SDS011;10974;51.034;3.744;2023-08-01T08:33:19;12.40;;;6.00;;
21624;SDS011;10974;51.034;3.744;2023-08-01T08:35:46;9.87;;;6.40;;
21624;SDS011;10974;51.034;3.744;2023-08-01T08:38:12;11.13;;;6.17;;
21624;SDS011;10974;51.034;3.744;2023-08-01T08:40:43;11.27;;;5.47;;
21624;SDS011;10974;51.034;3.744;2023-08-01T08:43:09;13.20;;;5.50;;
21624;SDS011;10974;51.034;3.744;2023-08-01T08:45:35;10.17;;;5.30;;
21624;SDS011;10974;51.034;3.744;2023-08-01T08:48:08;10.10;;;5.87;;
21624;SDS011;10974;51.034;3.744;2023-08-01T08:50:35;9.03;;;5.33;;
21624;SDS011;10974;51.034;3.744;2023-08-01T08:53:01;9.80;;;5.40;;
21624;SDS011;10974;51.034;3.744;2023-08-01T08:55:28;7.23;;;5.17;;
21624;SDS011;10974;51.034;3.744;2023-08-01T08:57:56;12.90;;;5.63;;
21624;SDS011;10974;51.034;3.744;2023-08-01T09:00:22;6.60;;;4.70;;
21624;SDS011;10974;51.034;3.744;2023-08-01T09:02:49;11.60;;;5.83;;
21624;SDS011;10974;51.034;3.744;2023-08-01T09:05:15;11.10;;;5.63;;
21624;SDS011;10974;51.034;3.744;2023-08-01T09:07:42;10.03;;;4.83;;
21624;SDS011;10974;51.034;3.744;2023-08-01T09:10:08;8.37;;;4.70;;
21624;SDS011;10974;51.034;3.744;2023-08-01T09:12:36;7.27;;;4.00;;
21624;SDS011;10974;51.034;3.744;2023-08-01T09:15:03;9.27;;;4.53;;
21624;SDS011;10974;51.034;3.744;2023-08-01T09:17:29;9.70;;;4.43;;
21624;SDS011;10974;51.034;3.744;2023-08-01T09:19:55;7.10;;;3.83;;
21624;SDS011;10974;51.034;3.744;2023-08-01T09:22:22;10.27;;;3.87;;
21624;SDS011;10974;51.034;3.744;2023-08-01T09:24:51;5.40;;;3.13;;
21624;SDS011;10974;51.034;3.744;2023-08-01T09:27:18;7.17;;;3.40;;
21624;SDS011;10974;51.034;3.744;2023-08-01T09:29:44;10.10;;;3.87;;
21624;SDS011;10974;51.034;3.744;2023-08-01T09:32:13;6.73;;;3.30;;
21624;SDS011;10974;51.034;3.744;2023-08-01T09:34:40;7.33;;;3.10;;
21624;SDS011;10974;51.034;3.744;2023-08-01T09:37:06;7.60;;;4.03;;
21624;SDS011;10974;51.034;3.744;2023-08-01T09:39:33;8.07;;;3.90;;
21624;SDS011;10974;51.034;3.744;2023-08-01T09:41:59;7.83;;;3.13;;
21624;SDS011;10974;51.034;3.744;2023-08-01T09:44:26;5.53;;;3.00;;
21624;SDS011;10974;51.034;3.744;2023-08-01T09:46:56;5.53;;;2.43;;
21624;SDS011;10974;51.034;3.744;2023-08-01T09:49:22;8.00;;;3.03;;
21624;SDS011;10974;51.034;3.744;2023-08-01T09:51:49;6.00;;;2.97;;
21624;SDS011;10974;51.034;3.744;2023-08-01T09:54:16;6.27;;;3.00;;
21624;SDS011;10974;51.034;3.744;2023-08-01T09:56:45;8.80;;;3.33;;
21624;SDS011;10974;51.034;3.744;2023-08-01T09:59:12;6.37;;;2.97;;
21624;SDS011;10974;51.034;3.744;2023-08-01T10:01:41;3.13;;;2.40;;
21624;SDS011;10974;51.034;3.744;2023-08-01T10:04:10;2.90;;;2.10;;
21624;SDS011;10974;51.034;3.744;2023-08-01T10:06:37;5.40;;;1.93;;
21624;SDS011;10974;51.034;3.744;2023-08-01T10:09:04;2.33;;;1.70;;
21624;SDS011;10974;51.034;3.744;2023-08-01T10:11:33;3.03;;;2.30;;
21624;SDS011;10974;51.034;3.744;2023-08-01T10:14:02;3.93;;;2.17;;
21624;SDS011;10974;51.034;3.744;2023-08-01T10:16:28;2.90;;;2.00;;
21624;SDS011;10974;51.034;3.744;2023-08-01T10:18:55;2.63;;;2.40;;
21624;SDS011;10974;51.034;3.744;2023-08-01T10:21:22;6.20;;;3.13;;
21624;SDS011;10974;51.034;3.744;2023-08-01T10:23:48;2.30;;;2.10;;
21624;SDS011;10974;51.034;3.744;2023-08-01T10:26:14;3.23;;;2.23;;
21624;SDS011;10974;51.034;3.744;2023-08-01T10:28:41;3.53;;;1.70;;
21624;SDS011;10974;51.034;3.744;2023-08-01T10:31:15;1.60;;;1.50;;
21624;SDS011;10974;51.034;3.744;2023-08-01T10:33:42;2.30;;;1.83;;
21624;SDS011;10974;51.034;3.744;2023-08-01T10:36:22;3.65;;;1.58;;
21624;SDS011;10974;51.034;3.744;2023-08-01T10:38:49;5.00;;;1.67;;
21624;SDS011;10974;51.034;3.744;2023-08-01T10:41:34;2.20;;;1.40;;
21624;SDS011;10974;51.034;3.744;2023-08-01T10:49:11;3.47;;;2.60;;
21624;SDS011;10974;51.034;3.744;2023-08-01T10:51:38;2.90;;;1.97;;
21624;SDS011;10974;51.034;3.744;2023-08-01T10:54:04;3.80;;;1.50;;
21624;SDS011;10974;51.034;3.744;2023-08-01T10:56:30;2.97;;;2.00;;
21624;SDS011;10974;51.034;3.744;2023-08-01T10:58:57;1.33;;;1.20;;
21624;SDS011;10974;51.034;3.744;2023-08-01T11:01:23;3.20;;;2.10;;
21624;SDS011;10974;51.034;3.744;2023-08-01T11:03:51;7.60;;;3.03;;
21624;SDS011;10974;51.034;3.744;2023-08-01T11:06:17;3.93;;;2.37;;
21624;SDS011;10974;51.034;3.744;2023-08-01T11:08:44;4.93;;;2.20;;
21624;SDS011;10974;51.034;3.744;2023-08-01T11:11:13;2.93;;;2.40;;
21624;SDS011;10974;51.034;3.744;2023-08-01T11:13:40;4.00;;;2.40;;
21624;SDS011;10974;51.034;3.744;2023-08-01T11:16:06;4.50;;;2.13;;
21624;SDS011;10974;51.034;3.744;2023-08-01T11:18:44;5.13;;;2.33;;
21624;SDS011;10974;51.034;3.744;2023-08-01T11:21:10;3.43;;;2.13;;
21624;SDS011;10974;51.034;3.744;2023-08-01T11:23:37;3.30;;;1.70;;
21624;SDS011;10974;51.034;3.744;2023-08-01T11:26:06;2.33;;;1.27;;
21624;SDS011;10974;51.034;3.744;2023-08-01T11:28:33;1.43;;;1.33;;
21624;SDS011;10974;51.034;3.744;2023-08-01T11:30:59;4.03;;;1.60;;
21624;SDS011;10974;51.034;3.744;2023-08-01T11:33:25;1.27;;;1.10;;
21624;SDS011;10974;51.034;3.744;2023-08-01T11:35:51;1.97;;;1.33;;
21624;SDS011;10974;51.034;3.744;2023-08-01T11:38:27;2.90;;;1.50;;
21624;SDS011;10974;51.034;3.744;2023-08-01T11:40:54;2.10;;;1.30;;
21624;SDS011;10974;51.034;3.744;2023-08-01T11:43:22;1.13;;;1.00;;
21624;SDS011;10974;51.034;3.744;2023-08-01T11:45:51;4.53;;;2.40;;
21624;SDS011;10974;51.034;3.744;2023-08-01T11:48:19;6.03;;;2.40;;
21624;SDS011;10974;51.034;3.744;2023-08-01T11:50:46;2.20;;;2.00;;
21624;SDS011;10974;51.034;3.744;2023-08-01T11:53:21;2.90;;;1.93;;
21624;SDS011;10974;51.034;3.744;2023-08-01T11:55:50;3.40;;;1.87;;
21624;SDS011;10974;51.034;3.744;2023-08-01T11:58:40;3.00;;;1.90;;
21624;SDS011;10974;51.034;3.744;2023-08-01T12:03:30;4.07;;;2.30;;
21624;SDS011;10974;51.034;3.744;2023-08-01T12:06:04;2.43;;;1.87;;
21624;SDS011;10974;51.034;3.744;2023-08-01T12:08:33;2.57;;;2.30;;
21624;SDS011;10974;51.034;3.744;2023-08-01T12:10:59;1.90;;;1.70;;
21624;SDS011;10974;51.034;3.744;2023-08-01T12:13:25;2.83;;;2.10;;
21624;SDS011;10974;51.034;3.744;2023-08-01T12:15:52;2.60;;;2.07;;
21624;SDS011;10974;51.034;3.744;2023-08-01T12:18:19;3.00;;;1.70;;
21624;SDS011;10974;51.034;3.744;2023-08-01T12:20:46;2.87;;;1.90;;
21624;SDS011;10974;51.034;3.744;2023-08-01T12:23:12;4.43;;;2.50;;
21624;SDS011;10974;51.034;3.744;2023-08-01T12:25:38;3.27;;;2.10;;
21624;SDS011;10974;51.034;3.744;2023-08-01T12:28:04;3.53;;;2.00;;
21624;SDS011;10974;51.034;3.744;2023-08-01T12:30:30;3.97;;;1.97;;
21624;SDS011;10974;51.034;3.744;2023-08-01T12:32:56;4.03;;;2.30;;
21624;SDS011;10974;51.034;3.744;2023-08-01T12:35:22;4.63;;;2.00;;
21624;SDS011;10974;51.034;3.744;2023-08-01T12:37:49;4.03;;;1.97;;
21624;SDS011;10974;51.034;3.744;2023-08-01T12:40:17;2.47;;;2.10;;
21624;SDS011;10974;51.034;3.744;2023-08-01T12:42:43;3.50;;;1.83;;
21624;SDS011;10974;51.034;3.744;2023-08-01T12:45:09;4.13;;;2.10;;
21624;SDS011;10974;51.034;3.744;2023-08-01T12:47:35;6.37;;;2.30;;
21624;SDS011;10974;51.034;3.744;2023-08-01T12:50:01;4.17;;;2.20;;
21624;SDS011;10974;51.034;3.744;2023-08-01T12:52:27;8.97;;;2.70;;
21624;SDS011;10974;51.034;3.744;2023-08-01T12:54:53;3.80;;;2.13;;
21624;SDS011;10974;51.034;3.744;2023-08-01T12:57:19;3.80;;;2.40;;
21624;SDS011;10974;51.034;3.744;2023-08-01T12:59:45;4.57;;;2.20;;
21624;SDS011;10974;51.034;3.744;2023-08-01T13:02:12;4.00;;;2.60;;
21624;SDS011;10974;51.034;3.744;2023-08-01T13:04:38;5.17;;;2.70;;
21624;SDS011;10974;51.034;3.744;2023-08-01T13:07:04;2.60;;;2.00;;
21624;SDS011;10974;51.034;3.744;2023-08-01T13:09:30;3.37;;;2.27;;
21624;SDS011;10974;51.034;3.744;2023-08-01T13:11:56;3.33;;;2.63;;
21624;SDS011;10974;51.034;3.744;2023-08-01T13:14:25;5.33;;;2.40;;
21624;SDS011;10974;51.034;3.744;2023-08-01T13:16:51;4.77;;;2.50;;
21624;SDS011;10974;51.034;3.744;2023-08-01T13:19:17;3.57;;;2.13;;
21624;SDS011;10974;51.034;3.744;2023-08-01T13:21:44;3.67;;;2.63;;
21624;SDS011;10974;51.034;3.744;2023-08-01T13:24:10;2.53;;;2.00;;
21624;SDS011;10974;51.034;3.744;2023-08-01T13:26:36;4.33;;;2.43;;
21624;SDS011;10974;51.034;3.744;2023-08-01T13:29:02;3.13;;;2.20;;
21624;SDS011;10974;51.034;3.744;2023-08-01T13:31:28;2.90;;;2.10;;
21624;SDS011;10974;51.034;3.744;2023-08-01T13:33:57;2.93;;;2.30;;
21624;SDS011;10974;51.034;3.744;2023-08-01T13:36:23;2.50;;;2.10;;
21624;SDS011;10974;51.034;3.744;2023-08-01T13:38:49;4.63;;;2.17;;
21624;SDS011;10974;51.034;3.744;2023-08-01T13:41:15;3.47;;;2.20;;
21624;SDS011;10974;51.034;3.744;2023-08-01T13:43:42;2.60;;;1.80;;
21624;SDS011;10974;51.034;3.744;2023-08-01T13:46:15;3.50;;;2.23;;
21624;SDS011;10974;51.034;3.744;2023-08-01T13:48:42;3.13;;;2.37;;
21624;SDS011;10974;51.034;3.744;2023-08-01T13:51:08;2.70;;;2.00;;
21624;SDS011;10974;51.034;3.744;2023-08-01T13:53:35;4.00;;;2.00;;
21624;SDS011;10974;51.034;3.744;2023-08-01T13:56:06;4.33;;;2.20;;
21624;SDS011;10974;51.034;3.744;2023-08-01T13:58:32;5.33;;;2.70;;
21624;SDS011;10974;51.034;3.744;2023-08-01T14:01:02;3.80;;;2.40;;
21624;SDS011;10974;51.034;3.744;2023-08-01T14:03:29;4.10;;;2.77;;
21624;SDS011;10974;51.034;3.744;2023-08-01T14:05:55;4.20;;;2.10;;
21624;SDS011;10974;51.034;3.744;2023-08-01T14:08:21;3.13;;;2.30;;
21624;SDS011;10974;51.034;3.744;2023-08-01T14:10:47;4.87;;;2.50;;
21624;SDS011;10974;51.034;3.744;2023-08-01T14:13:13;2.57;;;2.10;;
21624;SDS011;10974;51.034;3.744;2023-08-01T14:15:39;3.57;;;2.40;;
21624;SDS011;10974;51.034;3.744;2023-08-01T14:18:05;3.90;;;2.40;;
21624;SDS011;10974;51.034;3.744;2023-08-01T14:20:31;4.07;;;2.20;;
21624;SDS011;10974;51.034;3.744;2023-08-01T14:22:57;2.33;;;2.03;;
21624;SDS011;10974;51.034;3.744;2023-08-01T14:25:24;4.90;;;2.40;;
21624;SDS011;10974;51.034;3.744;2023-08-01T14:27:50;3.13;;;2.10;;
21624;SDS011;10974;51.034;3.744;2023-08-01T14:30:16;2.40;;;1.90;;
21624;SDS011;10974;51.034;3.744;2023-08-01T14:32:42;4.77;;;2.40;;
21624;SDS011;10974;51.034;3.744;2023-08-01T14:35:08;2.83;;;2.10;;
21624;SDS011;10974;51.034;3.744;2023-08-01T14:37:36;4.67;;;2.33;;
21624;SDS011;10974;51.034;3.744;2023-08-01T14:40:02;3.40;;;2.30;;
21624;SDS011;10974;51.034;3.744;2023-08-01T14:42:28;4.07;;;2.20;;
21624;SDS011;10974;51.034;3.744;2023-08-01T14:44:55;3.10;;;2.30;;
21624;SDS011;10974;51.034;3.744;2023-08-01T14:47:22;3.30;;;2.13;;
21624;SDS011;10974;51.034;3.744;2023-08-01T14:49:48;3.73;;;2.20;;
21624;SDS011;10974;51.034;3.744;2023-08-01T14:52:14;5.33;;;2.40;;
21624;SDS011;10974;51.034;3.744;2023-08-01T14:54:40;3.10;;;2.17;;
21624;SDS011;10974;51.034;3.744;2023-08-01T14:57:06;5.47;;;2.10;;
21624;SDS011;10974;51.034;3.744;2023-08-01T14:59:33;3.60;;;2.17;;
21624;SDS011;10974;51.034;3.744;2023-08-01T15:01:59;3.20;;;2.03;;
21624;SDS011;10974;51.034;3.744;2023-08-01T15:04:25;3.40;;;2.03;;
21624;SDS011;10974;51.034;3.744;2023-08-01T15:06:51;2.90;;;2.03;;
21624;SDS011;10974;51.034;3.744;2023-08-01T15:09:18;3.23;;;2.30;;
21624;SDS011;10974;51.034;3.744;2023-08-01T15:11:44;6.10;;;2.30;;
21624;SDS011;10974;51.034;3.744;2023-08-01T15:14:10;3.70;;;2.20;;
21624;SDS011;10974;51.034;3.744;2023-08-01T15:16:37;3.27;;;2.33;;
21624;SDS011;10974;51.034;3.744;2023-08-01T15:19:04;5.87;;;2.53;;
21624;SDS011;10974;51.034;3.744;2023-08-01T15:21:30;4.40;;;2.43;;
21624;SDS011;10974;51.034;3.744;2023-08-01T15:23:56;4.87;;;2.20;;
21624;SDS011;10974;51.034;3.744;2023-08-01T15:26:22;5.57;;;2.67;;
21624;SDS011;10974;51.034;3.744;2023-08-01T15:28:48;3.83;;;2.10;;
21624;SDS011;10974;51.034;3.744;2023-08-01T15:31:14;6.20;;;1.93;;
21624;SDS011;10974;51.034;3.744;2023-08-01T15:33:41;3.70;;;2.00;;
21624;SDS011;10974;51.034;3.744;2023-08-01T15:36:08;6.07;;;2.20;;
21624;SDS011;10974;51.034;3.744;2023-08-01T15:38:34;8.70;;;2.37;;
21624;SDS011;10974;51.034;3.744;2023-08-01T15:41:01;6.50;;;2.37;;
21624;SDS011;10974;51.034;3.744;2023-08-01T15:43:33;5.27;;;2.00;;
21624;SDS011;10974;51.034;3.744;2023-08-01T15:46:00;7.07;;;2.10;;
21624;SDS011;10974;51.034;3.744;2023-08-01T15:48:26;6.70;;;2.70;;
21624;SDS011;10974;51.034;3.744;2023-08-01T15:50:52;5.70;;;2.77;;
21624;SDS011;10974;51.034;3.744;2023-08-01T15:53:18;6.00;;;2.37;;
21624;SDS011;10974;51.034;3.744;2023-08-01T15:55:44;10.10;;;3.90;;
21624;SDS011;10974;51.034;3.744;2023-08-01T15:58:11;7.47;;;2.50;;
21624;SDS011;10974;51.034;3.744;2023-08-01T16:00:37;9.00;;;4.97;;
21624;SDS011;10974;51.034;3.744;2023-08-01T16:03:03;5.67;;;2.73;;
21624;SDS011;10974;51.034;3.744;2023-08-01T16:05:30;6.23;;;2.53;;
21624;SDS011;10974;51.034;3.744;2023-08-01T16:07:57;5.77;;;2.47;;
21624;SDS011;10974;51.034;3.744;2023-08-01T16:10:23;5.70;;;2.40;;
21624;SDS011;10974;51.034;3.744;2023-08-01T16:12:49;9.77;;;2.83;;
21624;SDS011;10974;51.034;3.744;2023-08-01T16:15:15;6.33;;;2.67;;
21624;SDS011;10974;51.034;3.744;2023-08-01T16:17:42;9.30;;;2.90;;
21624;SDS011;10974;51.034;3.744;2023-08-01T16:20:08;5.63;;;2.40;;
21624;SDS011;10974;51.034;3.744;2023-08-01T16:22:34;8.80;;;3.10;;
21624;SDS011;10974;51.034;3.744;2023-08-01T16:25:01;8.53;;;2.70;;
21624;SDS011;10974;51.034;3.744;2023-08-01T16:27:27;6.87;;;2.80;;
21624;SDS011;10974;51.034;3.744;2023-08-01T16:29:53;6.70;;;2.70;;
21624;SDS011;10974;51.034;3.744;2023-08-01T16:32:19;5.60;;;2.57;;
21624;SDS011;10974;51.034;3.744;2023-08-01T16:34:45;5.80;;;2.23;;
21624;SDS011;10974;51.034;3.744;2023-08-01T16:37:11;5.50;;;2.57;;
21624;SDS011;10974;51.034;3.744;2023-08-01T16:39:37;9.00;;;3.47;;
21624;SDS011;10974;51.034;3.744;2023-08-01T16:42:04;6.80;;;2.43;;
21624;SDS011;10974;51.034;3.744;2023-08-01T16:44:31;6.20;;;2.43;;
21624;SDS011;10974;51.034;3.744;2023-08-01T16:46:57;6.73;;;2.80;;
21624;SDS011;10974;51.034;3.744;2023-08-01T16:49:23;5.50;;;2.50;;
21624;SDS011;10974;51.034;3.744;2023-08-01T16:51:49;10.53;;;2.70;;
21624;SDS011;10974;51.034;3.744;2023-08-01T16:54:15;7.90;;;2.77;;
21624;SDS011;10974;51.034;3.744;2023-08-01T16:56:41;5.87;;;2.40;;
21624;SDS011;10974;51.034;3.744;2023-08-01T16:59:07;7.43;;;2.53;;
21624;SDS011;10974;51.034;3.744;2023-08-01T17:01:33;6.20;;;2.70;;
21624;SDS011;10974;51.034;3.744;2023-08-01T17:03:59;9.30;;;3.30;;
21624;SDS011;10974;51.034;3.744;2023-08-01T17:06:25;8.70;;;3.10;;
21624;SDS011;10974;51.034;3.744;2023-08-01T17:08:51;5.83;;;2.53;;
21624;SDS011;10974;51.034;3.744;2023-08-01T17:11:17;6.80;;;2.70;;
21624;SDS011;10974;51.034;3.744;2023-08-01T17:13:43;8.20;;;2.93;;
21624;SDS011;10974;51.034;3.744;2023-08-01T17:16:09;5.50;;;2.60;;
21624;SDS011;10974;51.034;3.744;2023-08-01T17:18:35;7.60;;;3.27;;
21624;SDS011;10974;51.034;3.744;2023-08-01T17:21:01;6.33;;;2.60;;
21624;SDS011;10974;51.034;3.744;2023-08-01T17:23:27;6.87;;;2.70;;
21624;SDS011;10974;51.034;3.744;2023-08-01T17:25:53;8.83;;;2.80;;
21624;SDS011;10974;51.034;3.744;2023-08-01T17:28:19;10.53;;;2.40;;
21624;SDS011;10974;51.034;3.744;2023-08-01T17:30:45;8.13;;;2.60;;
21624;SDS011;10974;51.034;3.744;2023-08-01T17:33:11;4.33;;;2.67;;
21624;SDS011;10974;51.034;3.744;2023-08-01T17:35:38;7.53;;;2.60;;
21624;SDS011;10974;51.034;3.744;2023-08-01T17:38:05;5.63;;;2.67;;
21624;SDS011;10974;51.034;3.744;2023-08-01T17:40:31;8.63;;;2.77;;
21624;SDS011;10974;51.034;3.744;2023-08-01T17:42:57;7.00;;;3.20;;
21624;SDS011;10974;51.034;3.744;2023-08-01T17:45:23;8.57;;;2.80;;
21624;SDS011;10974;51.034;3.744;2023-08-01T17:47:49;8.40;;;2.73;;
21624;SDS011;10974;51.034;3.744;2023-08-01T17:50:17;6.43;;;2.87;;
21624;SDS011;10974;51.034;3.744;2023-08-01T17:52:44;13.23;;;3.57;;
21624;SDS011;10974;51.034;3.744;2023-08-01T17:55:11;9.43;;;3.23;;
21624;SDS011;10974;51.034;3.744;2023-08-01T17:57:37;9.10;;;2.67;;
21624;SDS011;10974;51.034;3.744;2023-08-01T18:00:03;6.13;;;2.70;;
21624;SDS011;10974;51.034;3.744;2023-08-01T18:02:30;8.00;;;2.87;;
21624;SDS011;10974;51.034;3.744;2023-08-01T18:04:56;7.77;;;2.57;;
21624;SDS011;10974;51.034;3.744;2023-08-01T18:07:22;5.70;;;2.57;;
21624;SDS011;10974;51.034;3.744;2023-08-01T18:09:49;6.33;;;2.60;;
21624;SDS011;10974;51.034;3.744;2023-08-01T18:12:15;11.67;;;2.87;;
21624;SDS011;10974;51.034;3.744;2023-08-01T18:14:41;4.80;;;2.20;;
21624;SDS011;10974;51.034;3.744;2023-08-01T18:17:07;7.23;;;2.53;;
21624;SDS011;10974;51.034;3.744;2023-08-01T18:19:33;11.70;;;2.73;;
21624;SDS011;10974;51.034;3.744;2023-08-01T18:21:59;7.27;;;2.90;;
21624;SDS011;10974;51.034;3.744;2023-08-01T18:24:25;10.23;;;2.50;;
21624;SDS011;10974;51.034;3.744;2023-08-01T18:26:51;6.87;;;2.20;;
21624;SDS011;10974;51.034;3.744;2023-08-01T18:29:17;5.60;;;2.40;;